Time;durP1;ratioP1;P1;durP2;ratioP2;P2;SDS_P1;SDS_P2;PMS_P1;PMS_P2;Temp;Humidity;BMP_temperature;BMP_pressure;BME280_temperature;BME280_humidity;BME280_pressure;Samples;Min_cycle;Max_cycle;Signal;HPM_P1;HPM_P2
2021/04/15 00:02:16;;;;;;;6.60;5.28;;;;;;;1.20;88.53;99092.88;2165743;82;22265;-84
2021/04/15 00:05:17;;;;;;;6.95;6.12;;;;;;;1.21;88.47;99091.47;2165706;81;21585;-83
2021/04/15 00:08:19;;;;;;;6.08;5.50;;;;;;;1.24;88.45;99087.83;2165779;82;21146;-83
2021/04/15 00:11:22;;;;;;;7.28;5.60;;;;;;;1.26;88.35;99089.83;2166875;82;21157;-84
2021/04/15 00:14:24;;;;;;;5.60;5.10;;;;;;;1.25;88.37;99081.73;2165819;82;21318;-83
2021/04/15 00:17:26;;;;;;;5.87;5.30;;;;;;;1.22;88.45;99080.21;2165459;82;21302;-83
2021/04/15 00:20:28;;;;;;;10.75;7.58;;;;;;;1.18;88.52;99085.22;2165477;82;21291;-84
2021/04/15 00:23:30;;;;;;;10.68;6.12;;;;;;;1.18;88.52;99074.90;2165580;82;21287;-84
2021/04/15 00:26:33;;;;;;;7.12;5.97;;;;;;;1.20;88.50;99070.47;2165542;82;21185;-84
2021/04/15 00:29:34;;;;;;;7.08;5.10;;;;;;;1.20;88.45;99076.10;2165506;82;21770;-83
2021/04/15 00:32:36;;;;;;;7.08;4.78;;;;;;;1.20;88.34;99065.78;2165768;82;21604;-84
2021/04/15 00:35:38;;;;;;;4.97;4.25;;;;;;;1.19;88.51;99067.98;2166739;82;21327;-83
2021/04/15 00:38:41;;;;;;;6.30;4.78;;;;;;;1.17;88.34;99061.65;2167722;82;21172;-80
2021/04/15 00:41:42;;;;;;;4.87;4.45;;;;;;;1.16;88.29;99061.77;2167004;82;21750;-86
2021/04/15 00:44:44;;;;;;;5.67;5.00;;;;;;;1.17;88.56;99062.12;2165994;82;21191;-83
2021/04/15 00:47:46;;;;;;;5.08;4.55;;;;;;;1.16;88.42;99061.77;2165485;82;21310;-85
2021/04/15 00:50:48;;;;;;;5.58;5.08;;;;;;;1.18;88.42;99062.00;2165499;82;21177;-86
2021/04/15 00:53:50;;;;;;;5.47;4.40;;;;;;;1.19;88.55;99062.39;2165654;82;21342;-83
2021/04/15 00:56:51;;;;;;;4.87;4.47;;;;;;;1.13;88.58;99059.77;2165709;82;21295;-84
2021/04/15 00:59:53;;;;;;;5.83;5.33;;;;;;;1.12;88.43;99062.00;2165276;82;21270;-85
2021/04/15 01:02:55;;;;;;;4.55;4.12;;;;;;;1.11;88.76;99056.48;2165294;82;21291;-84
2021/04/15 01:05:57;;;;;;;4.67;3.90;;;;;;;1.11;88.64;99052.62;2165387;81;21184;-84
2021/04/15 01:09:00;;;;;;;4.62;4.30;;;;;;;1.09;88.59;99046.72;2165870;82;21192;-84
2021/04/15 01:12:01;;;;;;;5.25;4.75;;;;;;;1.08;88.68;99048.95;2165549;82;21286;-83
2021/04/15 01:15:04;;;;;;;5.15;3.83;;;;;;;1.08;88.87;99048.95;2165541;82;21608;-84
2021/04/15 01:18:06;;;;;;;4.45;3.80;;;;;;;1.10;88.64;99048.87;2165803;82;21390;-85
2021/04/15 01:21:08;;;;;;;4.30;3.98;;;;;;;1.11;88.73;99043.59;2165830;82;21846;-85
2021/04/15 01:24:10;;;;;;;4.58;4.17;;;;;;;1.09;88.58;99051.88;2165917;82;21200;-83
2021/04/15 01:27:12;;;;;;;5.65;3.17;;;;;;;1.06;88.66;99036.64;2165988;82;21181;-84
2021/04/15 01:30:14;;;;;;;4.20;3.75;;;;;;;1.03;88.74;99034.30;2165911;82;21189;-84
2021/04/15 01:33:15;;;;;;;3.12;2.87;;;;;;;1.00;88.80;99030.63;2166226;82;21140;-85
2021/04/15 01:36:17;;;;;;;3.10;2.90;;;;;;;0.99;88.87;99030.75;2165965;82;21456;-84
2021/04/15 01:39:19;;;;;;;5.20;4.15;;;;;;;0.99;88.85;99028.98;2165925;82;21724;-85
2021/04/15 01:42:21;;;;;;;3.70;3.40;;;;;;;0.97;88.86;99030.04;2165998;82;21184;-84
2021/04/15 01:45:22;;;;;;;4.83;4.45;;;;;;;0.98;89.08;99032.50;2165652;82;21294;-84
2021/04/15 01:48:24;;;;;;;6.10;4.58;;;;;;;0.99;88.84;99030.28;2165625;82;21322;-84
2021/04/15 01:51:25;;;;;;;4.20;3.90;;;;;;;0.99;88.87;99025.13;2165839;82;21302;-84
2021/04/15 01:54:27;;;;;;;4.72;4.33;;;;;;;0.99;88.79;99017.39;2165605;82;21128;-83
2021/04/15 01:57:29;;;;;;;5.58;4.47;;;;;;;1.00;88.81;99019.49;2165727;82;21278;-85
2021/04/15 02:00:32;;;;;;;4.78;4.28;;;;;;;0.97;88.94;99014.10;2165861;82;21176;-83
2021/04/15 02:03:35;;;;;;;5.08;4.58;;;;;;;0.97;89.14;99014.10;2165576;82;21181;-86
2021/04/15 02:06:37;;;;;;;4.65;4.22;;;;;;;0.96;89.12;99015.51;2165606;81;21334;-84
2021/04/15 02:09:39;;;;;;;4.12;3.83;;;;;;;0.95;88.99;99010.00;2165981;82;21310;-84
2021/04/15 02:12:41;;;;;;;4.30;4.00;;;;;;;0.96;88.94;99006.02;2165758;82;21160;-85
2021/04/15 02:15:45;;;;;;;5.45;4.95;;;;;;;1.00;89.00;99014.34;2165715;82;21343;-84
2021/04/15 02:18:47;;;;;;;6.45;4.80;;;;;;;0.99;88.84;99005.78;2165618;82;21164;-84
2021/04/15 02:21:49;;;;;;;4.92;4.10;;;;;;;1.02;88.88;99008.63;2165481;82;21347;-84
2021/04/15 02:24:51;;;;;;;6.50;5.90;;;;;;;1.01;88.89;99001.36;2165474;82;21339;-84
2021/04/15 02:27:52;;;;;;;9.35;7.12;;;;;;;1.04;88.88;99011.91;2165574;82;21183;-85
2021/04/15 02:30:54;;;;;;;9.20;6.83;;;;;;;1.03;88.81;99002.53;2165587;82;21342;-85
2021/04/15 02:33:56;;;;;;;9.13;6.72;;;;;;;1.03;88.79;99005.11;2165580;82;21640;-83
2021/04/15 02:36:58;;;;;;;9.05;7.60;;;;;;;1.02;88.76;98999.59;2165601;82;22152;-85
2021/04/15 02:39:59;;;;;;;6.03;5.45;;;;;;;1.02;88.90;98997.84;2166063;82;21295;-86
2021/04/15 02:43:01;;;;;;;5.83;5.08;;;;;;;1.05;88.92;98997.61;2165746;82;21279;-85
2021/04/15 02:46:03;;;;;;;6.30;5.62;;;;;;;1.04;88.85;98992.56;2165786;82;21161;-84
2021/04/15 02:49:05;;;;;;;6.08;5.50;;;;;;;1.02;89.06;98996.55;2165469;82;21295;-84
2021/04/15 02:52:06;;;;;;;6.53;5.72;;;;;;;1.03;88.87;98990.92;2165852;82;21310;-84
2021/04/15 02:55:08;;;;;;;6.17;5.67;;;;;;;1.02;88.94;98989.28;2165457;82;21192;-84
2021/04/15 02:58:10;;;;;;;5.65;5.12;;;;;;;1.03;89.00;98993.50;2165521;82;21783;-85
2021/04/15 03:01:12;;;;;;;6.08;5.47;;;;;;;1.03;88.92;98986.59;2166955;82;21175;-82
2021/04/15 03:04:14;;;;;;;6.30;5.70;;;;;;;1.05;89.02;98987.76;2167427;82;21687;-80
2021/04/15 03:07:16;;;;;;;6.15;5.65;;;;;;;1.04;88.90;98994.67;2168176;81;21227;-84
2021/04/15 03:10:18;;;;;;;6.50;5.90;;;;;;;1.03;88.86;98990.45;2168436;82;21152;-85
2021/04/15 03:13:20;;;;;;;6.85;6.22;;;;;;;1.02;88.85;98984.95;2167804;82;21171;-85
2021/04/15 03:16:22;;;;;;;14.23;9.80;;;;;;;1.03;88.93;98986.59;2168123;82;21160;-84
2021/04/15 03:19:24;;;;;;;19.62;12.35;;;;;;;1.03;88.88;98981.43;2168791;82;21585;-84
2021/04/15 03:22:26;;;;;;;22.95;14.28;;;;;;;1.06;88.92;98984.24;2165459;82;21319;-83
2021/04/15 03:25:29;;;;;;;19.40;14.43;;;;;;;1.05;88.90;98976.97;2168328;82;21597;-82
2021/04/15 03:28:30;;;;;;;13.40;10.65;;;;;;;1.05;88.93;98979.55;2168114;82;21743;-83
2021/04/15 03:31:32;;;;;;;11.35;9.88;;;;;;;1.05;88.97;98979.55;2145020;83;21173;-83
2021/04/15 03:34:34;;;;;;;8.43;7.42;;;;;;;1.05;88.95;98982.60;2145136;83;21185;-82
2021/04/15 03:37:36;;;;;;;8.70;7.80;;;;;;;1.02;88.94;98983.66;2145221;83;21185;-83
2021/04/15 03:40:38;;;;;;;11.68;9.68;;;;;;;1.02;88.93;98984.12;2144978;83;21173;-83
2021/04/15 03:43:40;;;;;;;11.12;8.68;;;;;;;1.00;89.13;98981.63;2145263;83;21307;-83
2021/04/15 03:46:42;;;;;;;8.58;7.47;;;;;;;1.04;89.21;98989.98;2145124;83;21173;-83
2021/04/15 03:49:44;;;;;;;9.33;8.30;;;;;;;1.03;89.09;98985.30;2145101;83;21593;-83
2021/04/15 03:52:46;;;;;;;12.18;8.95;;;;;;;1.05;89.13;98986.47;2144964;83;21585;-85
2021/04/15 03:55:48;;;;;;;8.58;7.62;;;;;;;1.03;89.06;98983.19;2145064;83;21667;-84
2021/04/15 03:58:50;;;;;;;8.23;7.47;;;;;;;1.06;89.07;98988.11;2145250;83;21318;-83
2021/04/15 04:01:52;;;;;;;9.18;7.60;;;;;;;1.07;89.02;98985.88;2145079;83;21177;-84
2021/04/15 04:04:54;;;;;;;10.08;9.18;;;;;;;1.08;88.98;98991.39;2145705;83;21307;-83
2021/04/15 04:07:56;;;;;;;9.03;8.13;;;;;;;1.09;89.00;98987.87;2143483;83;21351;-83
2021/04/15 04:10:59;;;;;;;8.65;7.83;;;;;;;1.06;88.93;98995.37;2142408;83;21292;-84
2021/04/15 04:14:01;;;;;;;7.78;6.97;;;;;;;1.05;89.13;98986.47;2142429;83;21323;-83
2021/04/15 04:17:03;;;;;;;8.43;7.62;;;;;;;1.04;89.13;98993.39;2142362;83;21169;-84
2021/04/15 04:20:04;;;;;;;10.63;7.55;;;;;;;1.06;89.05;98986.35;2142734;83;21177;-83
2021/04/15 04:23:08;;;;;;;9.23;8.33;;;;;;;1.08;89.09;98987.52;2142392;83;21312;-83
2021/04/15 04:26:10;;;;;;;7.60;6.90;;;;;;;1.09;88.98;98994.32;2142410;83;21283;-85
2021/04/15 04:29:11;;;;;;;7.70;6.33;;;;;;;1.12;88.96;98992.83;2142398;83;21312;-85
2021/04/15 04:32:13;;;;;;;7.03;6.40;;;;;;;1.12;88.97;98994.12;2142149;83;21196;-85
2021/04/15 04:35:15;;;;;;;7.35;6.65;;;;;;;1.14;88.95;98993.53;2142714;83;21205;-83
2021/04/15 04:38:17;;;;;;;7.33;5.67;;;;;;;1.16;88.89;98988.25;2142754;83;21327;-83
2021/04/15 04:41:19;;;;;;;8.10;7.28;;;;;;;1.18;88.79;98985.91;2142766;83;21298;-83
2021/04/15 04:44:21;;;;;;;7.50;6.20;;;;;;;1.17;88.79;98989.42;2142724;83;21157;-85
2021/04/15 04:47:23;;;;;;;7.20;6.60;;;;;;;1.22;88.82;98999.42;2142728;83;21148;-83
2021/04/15 04:50:25;;;;;;;8.10;6.80;;;;;;;1.20;88.88;98993.09;2142734;83;21295;-85
2021/04/15 04:53:27;;;;;;;7.92;7.22;;;;;;;1.21;88.84;98986.99;2142643;83;21739;-84
2021/04/15 04:56:29;;;;;;;8.58;7.45;;;;;;;1.25;88.74;98988.86;2142705;83;21189;-84
2021/04/15 04:59:30;;;;;;;7.40;6.70;;;;;;;1.27;88.68;98993.44;2142494;83;21327;-83
2021/04/15 05:02:32;;;;;;;8.48;6.75;;;;;;;1.30;88.60;98992.76;2142627;83;21328;-88
2021/04/15 05:05:34;;;;;;;8.70;6.95;;;;;;;1.31;88.44;98993.11;2142530;83;21283;-84
2021/04/15 05:08:36;;;;;;;7.33;6.47;;;;;;;1.32;88.58;98987.48;2142346;83;21275;-84
2021/04/15 05:11:37;;;;;;;6.20;5.70;;;;;;;1.35;88.52;98984.66;2142472;83;21303;-84
2021/04/15 05:14:40;;;;;;;7.53;6.83;;;;;;;1.39;88.38;98986.91;2142641;83;21755;-86
2021/04/15 05:17:42;;;;;;;6.42;5.83;;;;;;;1.45;88.36;98986.90;2142492;83;21197;-85
2021/04/15 05:20:43;;;;;;;8.50;7.70;;;;;;;1.49;88.21;98984.93;2142703;83;21285;-85
2021/04/15 05:23:45;;;;;;;8.63;7.80;;;;;;;1.52;88.10;98988.09;2142525;83;21291;-85
2021/04/15 05:26:47;;;;;;;8.20;7.37;;;;;;;1.58;88.06;98990.69;2142818;83;21177;-86
2021/04/15 05:29:49;;;;;;;8.98;7.37;;;;;;;1.62;87.96;98989.03;2142345;83;21283;-86
2021/04/15 05:32:51;;;;;;;10.45;9.35;;;;;;;1.64;87.92;98996.19;2142731;83;21189;-86
2021/04/15 05:35:52;;;;;;;10.88;8.98;;;;;;;1.68;87.87;98992.45;2143083;83;21157;-85
2021/04/15 05:38:54;;;;;;;13.45;10.82;;;;;;;1.77;87.72;98989.64;2142717;83;21331;-88
2021/04/15 05:41:56;;;;;;;11.80;10.70;;;;;;;1.82;87.71;98990.56;2143896;83;21332;-85
2021/04/15 05:44:58;;;;;;;15.08;11.88;;;;;;;1.91;87.71;98985.98;2143037;83;21176;-85
2021/04/15 05:48:00;;;;;;;15.65;13.83;;;;;;;1.96;87.26;98987.28;2142416;83;21319;-86
2021/04/15 05:51:03;;;;;;;14.38;12.90;;;;;;;1.96;87.03;98991.16;2142582;83;21727;-90
2021/04/15 05:54:04;;;;;;;15.20;12.75;;;;;;;1.96;87.02;98990.34;2142651;83;21299;-84
2021/04/15 05:57:06;;;;;;;17.67;14.85;;;;;;;2.05;87.27;98988.81;2142588;83;21205;-83
2021/04/15 06:00:09;;;;;;;19.67;15.95;;;;;;;2.09;87.00;98979.39;2142582;83;21319;-84
2021/04/15 06:03:10;;;;;;;21.48;17.37;;;;;;;2.14;86.78;98977.29;2142561;83;21315;-86
2021/04/15 06:06:12;;;;;;;17.50;15.35;;;;;;;2.16;86.48;98985.73;2143720;83;21732;-84
2021/04/15 06:09:14;;;;;;;15.95;13.28;;;;;;;2.17;86.51;98979.63;2143659;83;21169;-84
2021/04/15 06:12:17;;;;;;;18.05;14.18;;;;;;;2.18;86.49;98972.69;2144444;83;21307;-84
2021/04/15 06:15:19;;;;;;;20.27;16.07;;;;;;;2.22;86.26;98973.64;2142921;83;21169;-84
2021/04/15 06:18:21;;;;;;;18.12;15.10;;;;;;;2.25;86.34;98976.45;2142859;83;21611;-84
2021/04/15 06:21:23;;;;;;;27.73;20.40;;;;;;;2.28;86.24;98974.90;2143162;83;21279;-85
2021/04/15 06:24:25;;;;;;;25.92;19.25;;;;;;;2.35;86.34;98974.77;2142483;83;21608;-86
2021/04/15 06:27:27;;;;;;;25.62;18.02;;;;;;;2.34;85.71;98969.73;2142449;83;21790;-84
2021/04/15 06:30:30;;;;;;;21.55;15.55;;;;;;;2.35;85.75;98970.08;2142671;83;21276;-87
2021/04/15 06:33:32;;;;;;;19.55;13.83;;;;;;;2.40;85.78;98966.20;2121737;83;21279;-85
2021/04/15 06:36:34;;;;;;;17.17;12.63;;;;;;;2.37;85.63;98969.48;2142464;83;21311;-85
2021/04/15 06:39:36;;;;;;;16.10;11.50;;;;;;;2.41;85.46;98965.73;2142586;83;21307;-84
2021/04/15 06:42:37;;;;;;;24.60;13.38;;;;;;;2.39;85.41;98963.75;2142618;83;21747;-83
2021/04/15 06:45:39;;;;;;;27.65;16.57;;;;;;;2.37;85.49;98965.13;2142806;83;21152;-86
2021/04/15 06:48:41;;;;;;;17.20;13.35;;;;;;;2.34;85.19;98949.87;2142687;83;21177;-82
2021/04/15 06:51:43;;;;;;;14.47;12.35;;;;;;;2.36;85.67;98960.09;2142797;83;21157;-83
2021/04/15 06:54:45;;;;;;;15.88;12.23;;;;;;;2.42;85.61;98964.31;2142428;83;21141;-83
2021/04/15 06:57:47;;;;;;;17.80;13.32;;;;;;;2.46;85.14;98959.70;2142303;83;21763;-83
2021/04/15 07:00:49;;;;;;;18.12;12.88;;;;;;;2.47;85.08;98962.64;2142580;83;21316;-82
2021/04/15 07:03:51;;;;;;;17.65;13.45;;;;;;;2.48;85.01;98956.55;2142769;83;21315;-82
2021/04/15 07:06:52;;;;;;;16.85;13.58;;;;;;;2.56;85.33;98965.34;2142789;83;21185;-82
2021/04/15 07:09:54;;;;;;;17.17;13.10;;;;;;;2.63;84.98;98962.24;2142638;83;21287;-82
2021/04/15 07:12:58;;;;;;;16.75;11.18;;;;;;;2.68;85.31;98962.23;2142577;83;21307;-82
2021/04/15 07:16:00;;;;;;;17.23;12.98;;;;;;;2.72;84.51;98967.48;2142708;83;21701;-83
2021/04/15 07:19:02;;;;;;;20.92;14.55;;;;;;;2.69;84.47;98965.64;2142616;83;22126;-82
2021/04/15 07:22:04;;;;;;;20.95;15.35;;;;;;;2.68;84.47;98970.46;2142655;83;21778;-82
2021/04/15 07:25:06;;;;;;;14.07;10.13;;;;;;;2.72;84.65;98971.37;2142544;83;21663;-83
2021/04/15 07:28:08;;;;;;;17.20;14.18;;;;;;;2.79;84.07;98964.77;2142767;83;21188;-83
2021/04/15 07:31:10;;;;;;;17.17;13.70;;;;;;;2.83;84.51;98971.80;2142735;83;21181;-83
2021/04/15 07:34:13;;;;;;;17.67;14.43;;;;;;;2.92;84.61;98973.63;2121603;83;21320;-82
2021/04/15 07:37:15;;;;;;;17.50;14.07;;;;;;;3.01;84.21;98971.59;2142496;83;21790;-83
2021/04/15 07:40:17;;;;;;;14.20;12.70;;;;;;;3.04;84.09;98971.36;2142758;83;21134;-83
2021/04/15 07:43:20;;;;;;;13.15;10.95;;;;;;;3.07;83.62;98971.58;2142406;83;21268;-83
2021/04/15 07:46:21;;;;;;;13.80;10.72;;;;;;;3.11;83.50;98971.69;2142458;83;21735;-83
2021/04/15 07:49:24;;;;;;;16.10;12.63;;;;;;;3.09;83.46;98969.20;2142703;83;21573;-82
2021/04/15 07:52:26;;;;;;;17.02;12.75;;;;;;;3.13;83.58;98969.31;2142407;83;21739;-83
2021/04/15 07:55:28;;;;;;;13.03;11.45;;;;;;;3.13;83.49;98970.61;2142627;83;21185;-83
2021/04/15 07:58:31;;;;;;;14.25;11.25;;;;;;;3.11;82.77;98972.50;2142398;83;21295;-83
2021/04/15 08:01:32;;;;;;;16.42;12.98;;;;;;;3.21;83.10;98967.87;2142419;83;21332;-82
2021/04/15 08:04:35;;;;;;;16.30;12.40;;;;;;;3.27;83.06;98965.57;2121443;83;21323;-82
2021/04/15 08:07:36;;;;;;;17.37;13.43;;;;;;;3.40;82.83;98966.69;2142419;82;21330;-82
2021/04/15 08:10:39;;;;;;;19.45;15.58;;;;;;;3.50;82.25;98970.62;2142480;83;21168;-83
2021/04/15 08:13:43;;;;;;;17.98;13.83;;;;;;;3.54;82.26;98973.28;2142936;83;21610;-83
2021/04/15 08:16:45;;;;;;;14.83;13.00;;;;;;;3.59;82.92;98975.03;2142515;83;21291;-84
2021/04/15 08:19:48;;;;;;;14.23;11.97;;;;;;;3.65;81.33;98968.84;2142646;83;21316;-84
2021/04/15 08:22:51;;;;;;;16.50;12.35;;;;;;;3.68;81.81;98973.78;2142987;83;21326;-83
2021/04/15 08:25:53;;;;;;;15.78;11.97;;;;;;;3.71;82.00;98976.09;2142771;83;21177;-85
2021/04/15 08:28:54;;;;;;;14.38;12.80;;;;;;;3.78;81.81;98980.77;2142989;83;21172;-85
2021/04/15 08:31:56;;;;;;;16.02;12.73;;;;;;;3.80;81.45;98971.09;2142735;83;21819;-85
2021/04/15 08:34:58;;;;;;;18.87;14.20;;;;;;;3.82;80.64;98973.07;2143078;83;21168;-84
2021/04/15 08:38:00;;;;;;;19.35;14.33;;;;;;;3.82;81.26;98982.14;2142411;83;21177;-82
2021/04/15 08:41:02;;;;;;;17.57;14.35;;;;;;;3.88;81.34;98978.56;2142585;83;21320;-83
2021/04/15 08:44:04;;;;;;;19.20;14.85;;;;;;;3.98;81.69;98972.11;2142703;83;21545;-85
2021/04/15 08:47:05;;;;;;;20.77;16.35;;;;;;;4.07;81.14;98973.09;2142494;83;21302;-87
2021/04/15 08:50:07;;;;;;;18.12;15.10;;;;;;;4.14;81.26;98971.15;2143215;83;21303;-89
2021/04/15 08:53:09;;;;;;;17.70;13.80;;;;;;;4.26;80.57;98970.55;2142911;83;21336;-81
2021/04/15 08:56:11;;;;;;;15.58;12.45;;;;;;;4.30;80.70;98974.54;2142458;83;21740;-89
2021/04/15 08:59:13;;;;;;;16.25;12.18;;;;;;;4.27;79.91;98979.97;2142440;83;21299;-84
2021/04/15 09:02:15;;;;;;;17.25;13.90;;;;;;;4.26;80.06;98975.73;2142254;83;21162;-85
2021/04/15 09:05:17;;;;;;;19.50;15.48;;;;;;;4.26;80.57;98975.27;2142630;83;21319;-84
2021/04/15 09:08:20;;;;;;;21.62;15.88;;;;;;;4.25;80.30;98963.73;2142468;83;21311;-83
2021/04/15 09:11:23;;;;;;;22.02;16.05;;;;;;;4.36;80.47;98970.58;2142558;83;21704;-84
2021/04/15 09:14:25;;;;;;;20.05;15.63;;;;;;;4.50;80.72;98971.02;2142385;83;21300;-87
2021/04/15 09:17:27;;;;;;;19.05;13.68;;;;;;;4.62;79.36;98967.81;2142435;83;21756;-87
2021/04/15 09:20:34;;;;;;;21.00;14.87;;;;;;;4.69;79.60;98961.14;2142652;83;21287;-84
2021/04/15 09:23:36;;;;;;;18.48;13.22;;;;;;;4.73;78.74;98966.86;2142473;83;21653;-84
2021/04/15 09:26:38;;;;;;;18.32;13.53;;;;;;;4.74;79.37;98968.49;2142635;83;21659;-85
2021/04/15 09:29:40;;;;;;;19.57;14.30;;;;;;;4.78;79.18;98969.40;2142263;83;21791;-84
2021/04/15 09:32:42;;;;;;;16.10;13.13;;;;;;;4.76;79.23;98967.91;2142594;83;21624;-85
2021/04/15 09:35:44;;;;;;;13.88;12.37;;;;;;;4.79;79.33;98972.33;2142822;83;21138;-86
2021/04/15 09:38:46;;;;;;;15.83;11.43;;;;;;;4.83;78.91;98967.67;2142461;83;21134;-88
2021/04/15 09:41:48;;;;;;;14.98;12.45;;;;;;;4.75;78.47;98968.35;2142645;83;21200;-87
2021/04/15 09:44:49;;;;;;;15.00;11.38;;;;;;;4.73;78.43;98968.97;2142802;83;21572;-86
2021/04/15 09:47:51;;;;;;;11.88;10.63;;;;;;;4.68;78.98;98967.77;2121776;83;21295;-85
2021/04/15 09:50:53;;;;;;;11.50;9.58;;;;;;;4.70;78.91;98971.84;2142835;83;21546;-88
2021/04/15 09:53:54;;;;;;;12.05;10.63;;;;;;;4.71;78.68;98968.30;2142479;83;21315;-87
2021/04/15 09:56:56;;;;;;;12.63;10.35;;;;;;;4.77;78.53;98958.69;2142790;83;21656;-87
2021/04/15 09:59:58;;;;;;;12.15;10.80;;;;;;;4.78;78.83;98958.20;2142672;83;21177;-86
2021/04/15 10:03:00;;;;;;;13.98;10.60;;;;;;;4.81;78.66;98961.33;2142820;83;21148;-89
2021/04/15 10:06:03;;;;;;;13.43;10.20;;;;;;;4.87;79.00;98964.34;2142648;83;22166;-87
2021/04/15 10:09:05;;;;;;;14.95;11.20;;;;;;;4.92;78.27;98962.96;2142589;83;21755;-85
2021/04/15 10:12:07;;;;;;;12.78;10.35;;;;;;;4.94;78.47;98963.67;2142480;83;21303;-85
2021/04/15 10:15:09;;;;;;;9.18;8.28;;;;;;;4.98;78.14;98959.02;2142659;83;21176;-89
2021/04/15 10:18:10;;;;;;;11.08;9.95;;;;;;;5.04;77.40;98961.06;2142595;83;21172;-85
2021/04/15 10:21:12;;;;;;;12.20;10.95;;;;;;;5.08;77.75;98959.34;2142398;83;21672;-85
2021/04/15 10:24:14;;;;;;;15.40;12.18;;;;;;;5.20;78.21;98959.99;2142759;83;21263;-85
2021/04/15 10:27:15;;;;;;;15.83;11.05;;;;;;;5.41;77.90;98959.36;2142646;83;21148;-85
2021/04/15 10:30:17;;;;;;;14.38;11.60;;;;;;;5.50;77.25;98956.87;2142429;83;21173;-85
2021/04/15 10:33:19;;;;;;;11.65;10.28;;;;;;;5.50;76.87;98955.58;2142608;83;21114;-85
2021/04/15 10:36:21;;;;;;;11.78;10.35;;;;;;;5.43;76.73;98955.31;2142474;83;21165;-85
2021/04/15 10:39:23;;;;;;;10.65;9.48;;;;;;;5.54;77.47;98955.14;2142220;83;21305;-85
2021/04/15 10:42:25;;;;;;;11.15;10.05;;;;;;;5.68;76.85;98955.99;2142451;83;21790;-85
2021/04/15 10:45:27;;;;;;;8.90;8.00;;;;;;;5.85;77.31;98954.42;2142329;83;21307;-85
2021/04/15 10:48:28;;;;;;;11.00;9.00;;;;;;;5.91;77.11;98953.05;2142685;83;21172;-85
2021/04/15 10:51:30;;;;;;;9.48;8.48;;;;;;;5.99;76.99;98950.55;2142418;83;21185;-85
2021/04/15 10:54:32;;;;;;;8.68;6.95;;;;;;;6.08;76.54;98950.16;2144451;83;21170;-85
2021/04/15 10:57:36;;;;;;;7.47;6.78;;;;;;;6.06;75.61;98943.81;2142351;83;21169;-85
2021/04/15 11:00:37;;;;;;;9.78;7.33;;;;;;;5.96;75.44;98949.06;2142558;83;21225;-85
2021/04/15 11:03:38;;;;;;;8.75;7.67;;;;;;;5.92;75.81;98957.28;2142692;83;21180;-84
2021/04/15 11:06:40;;;;;;;8.28;7.58;;;;;;;5.85;75.70;98957.02;2142781;83;21201;-91
2021/04/15 11:09:43;;;;;;;9.90;8.15;;;;;;;5.81;76.24;98953.54;2142139;82;21652;-86
2021/04/15 11:12:45;;;;;;;6.80;6.20;;;;;;;5.80;75.38;98957.11;2142377;83;21284;-86
2021/04/15 11:15:47;;;;;;;7.80;7.05;;;;;;;5.77;75.98;98954.80;2142529;83;21283;-86
2021/04/15 11:18:50;;;;;;;8.80;8.00;;;;;;;5.80;76.21;98954.50;2142701;83;21166;-85
2021/04/15 11:21:53;;;;;;;9.08;7.72;;;;;;;5.90;76.67;98956.13;2142588;83;21747;-84
2021/04/15 11:24:55;;;;;;;6.62;6.03;;;;;;;6.02;76.35;98954.15;2142665;83;21184;-84
2021/04/15 11:27:56;;;;;;;6.75;6.15;;;;;;;6.01;75.86;98953.00;2142861;83;21192;-85
2021/04/15 11:30:58;;;;;;;7.20;6.47;;;;;;;6.00;76.04;98956.08;2142308;83;21596;-85
2021/04/15 11:33:59;;;;;;;6.62;6.03;;;;;;;6.05;75.60;98957.78;2142680;83;21170;-85
2021/04/15 11:37:01;;;;;;;6.90;6.40;;;;;;;6.07;75.63;98951.95;2142350;83;21295;-85
2021/04/15 11:40:03;;;;;;;7.65;6.95;;;;;;;6.08;75.29;98953.58;2142570;83;21299;-84
2021/04/15 11:43:05;;;;;;;9.35;7.22;;;;;;;6.18;76.32;98956.13;2142672;83;21572;-85
2021/04/15 11:46:06;;;;;;;9.70;7.22;;;;;;;6.32;76.01;98954.34;2142715;83;21193;-84
2021/04/15 11:49:08;;;;;;;9.85;7.50;;;;;;;6.34;75.30;98955.01;2142574;83;21303;-84
2021/04/15 11:52:10;;;;;;;8.33;7.45;;;;;;;6.31;75.10;98950.11;2142614;83;21188;-89
2021/04/15 11:55:14;;;;;;;10.40;8.90;;;;;;;6.32;75.59;98953.53;2142791;83;21315;-86
2021/04/15 11:58:15;;;;;;;13.32;8.93;;;;;;;6.33;75.40;98957.28;2142850;83;21271;-86
2021/04/15 12:01:19;;;;;;;9.38;7.85;;;;;;;6.37;75.78;98953.89;2142648;83;21763;-86
2021/04/15 12:04:21;;;;;;;8.43;6.33;;;;;;;6.43;75.24;98946.81;2142699;83;21270;-89
2021/04/15 12:07:23;;;;;;;9.45;8.53;;;;;;;6.37;74.73;98949.50;2142429;83;21748;-86
2021/04/15 12:10:25;;;;;;;7.75;6.95;;;;;;;6.30;75.10;98948.45;2142466;83;21340;-84
2021/04/15 12:13:27;;;;;;;7.33;6.62;;;;;;;6.27;75.70;98948.75;2142586;83;21356;-84
2021/04/15 12:16:29;;;;;;;7.58;6.87;;;;;;;6.39;75.67;98948.87;2142359;83;21320;-87
2021/04/15 12:19:31;;;;;;;6.83;6.22;;;;;;;6.44;75.37;98953.64;2142439;83;21291;-84
2021/04/15 12:22:33;;;;;;;6.72;6.10;;;;;;;6.46;74.97;98946.50;2142788;83;21189;-83
2021/04/15 12:25:35;;;;;;;9.10;8.15;;;;;;;6.35;74.74;98950.63;2142868;83;21181;-88
2021/04/15 12:28:39;;;;;;;10.35;8.05;;;;;;;6.27;75.43;98950.05;2143001;83;21149;-88
2021/04/15 12:31:41;;;;;;;7.22;6.53;;;;;;;6.36;75.46;98944.45;2142366;83;21585;-83
2021/04/15 12:34:43;;;;;;;8.28;7.42;;;;;;;6.52;74.80;98944.14;2142445;83;21287;-83
2021/04/15 12:37:45;;;;;;;7.22;6.47;;;;;;;6.68;74.36;98936.16;2142780;83;21598;-83
2021/04/15 12:40:47;;;;;;;7.37;6.70;;;;;;;6.59;73.87;98935.75;2142528;83;21189;-84
2021/04/15 12:43:48;;;;;;;6.95;6.35;;;;;;;6.50;74.19;98940.87;2142419;83;21157;-83
2021/04/15 12:46:50;;;;;;;6.40;5.80;;;;;;;6.53;74.17;98941.05;2142342;83;21668;-83
2021/04/15 12:49:53;;;;;;;5.80;5.28;;;;;;;6.57;75.06;98937.17;2142562;83;21153;-82
2021/04/15 12:52:54;;;;;;;7.53;5.97;;;;;;;6.63;74.54;98938.38;2142412;83;21327;-82
2021/04/15 12:55:57;;;;;;;7.85;5.95;;;;;;;6.67;74.16;98941.81;2142552;83;21188;-83
2021/04/15 12:59:02;;;;;;;7.60;6.92;;;;;;;6.71;74.41;98941.05;2142614;83;21315;-83
2021/04/15 13:02:04;;;;;;;7.33;6.62;;;;;;;6.78;74.47;98942.92;2142354;83;21307;-83
2021/04/15 13:05:06;;;;;;;5.08;4.62;;;;;;;6.95;73.71;98937.37;2142474;83;21176;-83
2021/04/15 13:08:08;;;;;;;5.22;4.83;;;;;;;7.00;73.29;98939.02;2142729;83;21379;-83
2021/04/15 13:11:11;;;;;;;5.30;4.87;;;;;;;6.95;73.60;98941.27;2142492;82;21296;-84
2021/04/15 13:14:13;;;;;;;5.12;4.83;;;;;;;7.00;73.37;98941.63;2142513;83;21287;-83
2021/04/15 13:17:15;;;;;;;6.42;5.80;;;;;;;7.07;73.39;98935.33;2142186;83;21287;-83
2021/04/15 13:20:17;;;;;;;5.80;4.97;;;;;;;7.09;74.00;98936.80;2142800;83;21620;-84
2021/04/15 13:23:19;;;;;;;6.05;5.50;;;;;;;7.23;73.45;98932.03;2142805;83;21570;-84
2021/04/15 13:26:21;;;;;;;4.58;4.28;;;;;;;7.21;73.24;98936.55;2142507;83;21165;-83
2021/04/15 13:29:23;;;;;;;4.72;4.33;;;;;;;7.15;73.89;98938.48;2142856;83;21593;-83
2021/04/15 13:32:25;;;;;;;5.10;4.60;;;;;;;6.98;73.10;98929.73;2142483;83;21307;-84
2021/04/15 13:35:26;;;;;;;8.53;6.33;;;;;;;6.94;73.65;98926.59;2142670;83;21332;-84
2021/04/15 13:38:29;;;;;;;7.28;5.75;;;;;;;6.90;73.64;98930.97;2142903;83;21148;-85
2021/04/15 13:41:32;;;;;;;6.92;5.92;;;;;;;6.80;73.52;98929.27;2142667;83;21161;-86
2021/04/15 13:44:34;;;;;;;7.25;6.30;;;;;;;6.78;74.17;98926.00;2142649;83;21168;-86
2021/04/15 13:47:36;;;;;;;7.75;6.50;;;;;;;6.73;73.61;98931.31;2142699;83;21150;-86
2021/04/15 13:50:37;;;;;;;9.55;7.65;;;;;;;6.60;73.47;98929.09;2142449;83;21296;-85
2021/04/15 13:53:39;;;;;;;6.55;5.35;;;;;;;6.52;73.25;98920.72;2142629;83;21299;-86
2021/04/15 13:56:41;;;;;;;9.35;6.53;;;;;;;6.52;73.85;98924.63;2142742;83;21138;-86
2021/04/15 13:59:42;;;;;;;11.03;7.22;;;;;;;6.54;74.38;98927.08;2142749;83;21178;-86
2021/04/15 14:02:45;;;;;;;9.80;8.23;;;;;;;6.63;74.71;98924.88;2142398;83;21307;-85
2021/04/15 14:05:46;;;;;;;7.80;6.28;;;;;;;6.72;74.51;98930.98;2142561;83;21339;-85
2021/04/15 14:08:48;;;;;;;8.35;7.15;;;;;;;6.66;74.31;98934.16;2142618;83;21161;-86
2021/04/15 14:11:50;;;;;;;15.40;8.30;;;;;;;6.47;74.18;98930.74;2142436;83;21322;-86
2021/04/15 14:14:53;;;;;;;15.05;8.35;;;;;;;6.31;74.40;98934.96;2142457;83;21315;-86
2021/04/15 14:17:55;;;;;;;11.45;8.55;;;;;;;6.18;74.88;98932.73;2142722;83;21177;-85